sensor_id;sensor_type;location;lat;lon;timestamp;P1;durP1;ratioP1;P2;durP2;ratioP2
12194;SDS011;27023;42.680;23.132;2022-12-29T00:02:01;23.47;;;22.10;;
12194;SDS011;27023;42.680;23.132;2022-12-29T00:04:28;19.47;;;18.50;;
12194;SDS011;27023;42.680;23.132;2022-12-29T00:06:56;15.03;;;14.33;;
12194;SDS011;27023;42.680;23.132;2022-12-29T00:09:23;17.60;;;16.67;;
12194;SDS011;27023;42.680;23.132;2022-12-29T00:11:49;18.43;;;17.50;;
12194;SDS011;27023;42.680;23.132;2022-12-29T00:14:16;28.87;;;27.20;;
12194;SDS011;27023;42.680;23.132;2022-12-29T00:17:06;14.97;;;14.27;;
12194;SDS011;27023;42.680;23.132;2022-12-29T00:19:33;15.30;;;14.47;;
12194;SDS011;27023;42.680;23.132;2022-12-29T00:22:17;22.57;;;20.80;;
12194;SDS011;27023;42.680;23.132;2022-12-29T00:25:01;19.77;;;18.87;;
12194;SDS011;27023;42.680;23.132;2022-12-29T00:28:01;19.63;;;18.70;;
12194;SDS011;27023;42.680;23.132;2022-12-29T00:30:45;19.43;;;18.33;;
12194;SDS011;27023;42.680;23.132;2022-12-29T00:33:29;16.23;;;14.90;;
12194;SDS011;27023;42.680;23.132;2022-12-29T00:36:15;16.33;;;15.70;;
12194;SDS011;27023;42.680;23.132;2022-12-29T00:38:46;16.83;;;16.03;;
12194;SDS011;27023;42.680;23.132;2022-12-29T00:41:33;14.50;;;13.73;;
12194;SDS011;27023;42.680;23.132;2022-12-29T00:44:17;12.13;;;11.73;;
12194;SDS011;27023;42.680;23.132;2022-12-29T00:46:44;14.87;;;14.27;;
12194;SDS011;27023;42.680;23.132;2022-12-29T00:49:12;17.03;;;16.13;;
12194;SDS011;27023;42.680;23.132;2022-12-29T00:51:59;17.57;;;16.77;;
12194;SDS011;27023;42.680;23.132;2022-12-29T00:54:29;16.10;;;15.37;;
12194;SDS011;27023;42.680;23.132;2022-12-29T00:56:57;14.77;;;14.17;;
12194;SDS011;27023;42.680;23.132;2022-12-29T00:59:25;15.13;;;14.47;;
12194;SDS011;27023;42.680;23.132;2022-12-29T01:01:52;13.87;;;13.37;;
12194;SDS011;27023;42.680;23.132;2022-12-29T01:04:19;19.27;;;18.43;;
12194;SDS011;27023;42.680;23.132;2022-12-29T01:06:48;17.93;;;17.23;;
12194;SDS011;27023;42.680;23.132;2022-12-29T01:09:15;17.53;;;16.77;;
12194;SDS011;27023;42.680;23.132;2022-12-29T01:11:58;15.00;;;14.23;;
12194;SDS011;27023;42.680;23.132;2022-12-29T01:14:25;17.37;;;16.50;;
12194;SDS011;27023;42.680;23.132;2022-12-29T01:16:52;19.37;;;18.47;;
12194;SDS011;27023;42.680;23.132;2022-12-29T01:19:19;21.53;;;20.40;;
12194;SDS011;27023;42.680;23.132;2022-12-29T01:21:46;21.70;;;20.67;;
12194;SDS011;27023;42.680;23.132;2022-12-29T01:24:13;23.00;;;21.90;;
12194;SDS011;27023;42.680;23.132;2022-12-29T01:26:40;29.43;;;27.97;;
12194;SDS011;27023;42.680;23.132;2022-12-29T01:29:08;31.73;;;30.13;;
12194;SDS011;27023;42.680;23.132;2022-12-29T01:31:35;38.90;;;37.03;;
12194;SDS011;27023;42.680;23.132;2022-12-29T01:34:02;30.73;;;29.30;;
12194;SDS011;27023;42.680;23.132;2022-12-29T01:36:29;37.67;;;35.90;;
12194;SDS011;27023;42.680;23.132;2022-12-29T01:38:56;21.27;;;20.37;;
12194;SDS011;27023;42.680;23.132;2022-12-29T01:41:22;11.43;;;11.03;;
12194;SDS011;27023;42.680;23.132;2022-12-29T01:43:50;19.63;;;18.67;;
12194;SDS011;27023;42.680;23.132;2022-12-29T01:46:20;23.27;;;22.30;;
12194;SDS011;27023;42.680;23.132;2022-12-29T01:48:52;18.23;;;17.40;;
12194;SDS011;27023;42.680;23.132;2022-12-29T01:51:21;17.47;;;16.60;;
12194;SDS011;27023;42.680;23.132;2022-12-29T01:53:50;16.50;;;15.53;;
12194;SDS011;27023;42.680;23.132;2022-12-29T01:56:18;14.00;;;13.40;;
12194;SDS011;27023;42.680;23.132;2022-12-29T01:58:48;14.80;;;14.20;;
12194;SDS011;27023;42.680;23.132;2022-12-29T02:01:23;24.13;;;23.03;;
12194;SDS011;27023;42.680;23.132;2022-12-29T02:03:50;20.23;;;19.33;;
12194;SDS011;27023;42.680;23.132;2022-12-29T02:06:18;20.27;;;19.37;;
12194;SDS011;27023;42.680;23.132;2022-12-29T02:08:49;21.40;;;20.47;;
12194;SDS011;27023;42.680;23.132;2022-12-29T02:11:18;14.37;;;13.73;;
12194;SDS011;27023;42.680;23.132;2022-12-29T02:13:46;19.43;;;18.57;;
12194;SDS011;27023;42.680;23.132;2022-12-29T02:16:14;19.03;;;18.23;;
12194;SDS011;27023;42.680;23.132;2022-12-29T02:18:51;17.70;;;16.80;;
12194;SDS011;27023;42.680;23.132;2022-12-29T02:21:32;16.40;;;15.77;;
12194;SDS011;27023;42.680;23.132;2022-12-29T02:24:18;14.70;;;13.90;;
12194;SDS011;27023;42.680;23.132;2022-12-29T02:27:17;12.40;;;11.83;;
12194;SDS011;27023;42.680;23.132;2022-12-29T02:30:02;12.23;;;11.73;;
12194;SDS011;27023;42.680;23.132;2022-12-29T02:32:51;11.67;;;11.30;;
12194;SDS011;27023;42.680;23.132;2022-12-29T02:35:25;12.37;;;11.87;;
12194;SDS011;27023;42.680;23.132;2022-12-29T02:38:03;12.00;;;11.53;;
12194;SDS011;27023;42.680;23.132;2022-12-29T02:40:41;15.63;;;14.90;;
12194;SDS011;27023;42.680;23.132;2022-12-29T02:43:14;16.80;;;16.03;;
12194;SDS011;27023;42.680;23.132;2022-12-29T02:45:51;17.23;;;16.43;;
12194;SDS011;27023;42.680;23.132;2022-12-29T02:48:24;14.33;;;13.73;;
12194;SDS011;27023;42.680;23.132;2022-12-29T02:50:55;13.10;;;12.47;;
12194;SDS011;27023;42.680;23.132;2022-12-29T02:53:25;14.40;;;13.70;;
12194;SDS011;27023;42.680;23.132;2022-12-29T02:56:08;13.30;;;12.70;;
12194;SDS011;27023;42.680;23.132;2022-12-29T02:58:35;14.07;;;13.40;;
12194;SDS011;27023;42.680;23.132;2022-12-29T03:01:05;13.43;;;12.83;;
12194;SDS011;27023;42.680;23.132;2022-12-29T03:03:48;14.77;;;14.03;;
12194;SDS011;27023;42.680;23.132;2022-12-29T03:06:27;18.50;;;17.50;;
12194;SDS011;27023;42.680;23.132;2022-12-29T03:09:00;13.30;;;12.83;;
12194;SDS011;27023;42.680;23.132;2022-12-29T03:11:33;12.33;;;11.83;;
12194;SDS011;27023;42.680;23.132;2022-12-29T03:14:26;12.50;;;11.93;;
12194;SDS011;27023;42.680;23.132;2022-12-29T03:17:16;11.80;;;11.33;;
12194;SDS011;27023;42.680;23.132;2022-12-29T03:19:52;15.67;;;15.10;;
12194;SDS011;27023;42.680;23.132;2022-12-29T03:22:27;22.93;;;21.83;;
12194;SDS011;27023;42.680;23.132;2022-12-29T03:25:00;41.40;;;39.37;;
12194;SDS011;27023;42.680;23.132;2022-12-29T03:27:30;28.30;;;26.87;;
12194;SDS011;27023;42.680;23.132;2022-12-29T03:30:00;27.73;;;26.33;;
12194;SDS011;27023;42.680;23.132;2022-12-29T03:32:31;14.30;;;13.67;;
12194;SDS011;27023;42.680;23.132;2022-12-29T03:35:02;16.33;;;15.63;;
12194;SDS011;27023;42.680;23.132;2022-12-29T03:37:31;16.10;;;15.30;;
12194;SDS011;27023;42.680;23.132;2022-12-29T03:40:04;18.87;;;17.73;;
12194;SDS011;27023;42.680;23.132;2022-12-29T03:42:32;16.70;;;15.80;;
12194;SDS011;27023;42.680;23.132;2022-12-29T03:45:02;16.27;;;15.57;;
12194;SDS011;27023;42.680;23.132;2022-12-29T03:47:32;21.47;;;20.37;;
12194;SDS011;27023;42.680;23.132;2022-12-29T03:49:59;25.37;;;24.00;;
12194;SDS011;27023;42.680;23.132;2022-12-29T03:52:27;24.70;;;23.37;;
12194;SDS011;27023;42.680;23.132;2022-12-29T03:54:53;23.13;;;22.07;;
12194;SDS011;27023;42.680;23.132;2022-12-29T03:57:20;27.73;;;26.33;;
12194;SDS011;27023;42.680;23.132;2022-12-29T03:59:47;20.37;;;19.43;;
12194;SDS011;27023;42.680;23.132;2022-12-29T04:02:14;22.03;;;21.00;;
12194;SDS011;27023;42.680;23.132;2022-12-29T04:04:41;25.30;;;23.97;;
12194;SDS011;27023;42.680;23.132;2022-12-29T04:07:07;31.43;;;29.63;;
12194;SDS011;27023;42.680;23.132;2022-12-29T04:09:36;36.17;;;34.13;;
12194;SDS011;27023;42.680;23.132;2022-12-29T04:12:02;40.90;;;38.73;;
12194;SDS011;27023;42.680;23.132;2022-12-29T04:14:29;43.87;;;41.57;;
12194;SDS011;27023;42.680;23.132;2022-12-29T04:16:56;40.60;;;38.50;;
12194;SDS011;27023;42.680;23.132;2022-12-29T04:19:23;34.23;;;32.33;;
12194;SDS011;27023;42.680;23.132;2022-12-29T04:21:49;29.10;;;27.60;;
12194;SDS011;27023;42.680;23.132;2022-12-29T04:24:16;28.73;;;27.23;;
12194;SDS011;27023;42.680;23.132;2022-12-29T04:26:44;33.43;;;31.63;;
12194;SDS011;27023;42.680;23.132;2022-12-29T04:29:11;34.23;;;32.37;;
12194;SDS011;27023;42.680;23.132;2022-12-29T04:31:37;32.80;;;31.17;;
12194;SDS011;27023;42.680;23.132;2022-12-29T04:34:04;25.47;;;24.20;;
12194;SDS011;27023;42.680;23.132;2022-12-29T04:36:30;23.60;;;22.60;;
12194;SDS011;27023;42.680;23.132;2022-12-29T04:38:57;23.30;;;22.33;;
12194;SDS011;27023;42.680;23.132;2022-12-29T04:41:24;26.13;;;24.93;;
12194;SDS011;27023;42.680;23.132;2022-12-29T04:43:52;28.93;;;27.37;;
12194;SDS011;27023;42.680;23.132;2022-12-29T04:46:19;29.70;;;28.13;;
12194;SDS011;27023;42.680;23.132;2022-12-29T04:48:45;30.90;;;29.30;;
12194;SDS011;27023;42.680;23.132;2022-12-29T04:51:12;29.27;;;27.80;;
12194;SDS011;27023;42.680;23.132;2022-12-29T04:53:39;36.70;;;34.70;;
12194;SDS011;27023;42.680;23.132;2022-12-29T04:56:06;37.03;;;35.07;;
12194;SDS011;27023;42.680;23.132;2022-12-29T04:58:34;40.37;;;38.13;;
12194;SDS011;27023;42.680;23.132;2022-12-29T05:01:02;47.77;;;45.10;;
12194;SDS011;27023;42.680;23.132;2022-12-29T05:03:29;53.90;;;51.00;;
12194;SDS011;27023;42.680;23.132;2022-12-29T05:05:55;66.87;;;63.17;;
12194;SDS011;27023;42.680;23.132;2022-12-29T05:08:23;80.67;;;76.23;;
12194;SDS011;27023;42.680;23.132;2022-12-29T05:10:50;76.57;;;72.43;;
12194;SDS011;27023;42.680;23.132;2022-12-29T05:13:17;72.40;;;68.47;;
12194;SDS011;27023;42.680;23.132;2022-12-29T05:15:45;44.57;;;42.23;;
12194;SDS011;27023;42.680;23.132;2022-12-29T05:18:18;41.67;;;39.33;;
12194;SDS011;27023;42.680;23.132;2022-12-29T05:20:45;50.43;;;47.70;;
12194;SDS011;27023;42.680;23.132;2022-12-29T05:23:13;48.07;;;45.60;;
12194;SDS011;27023;42.680;23.132;2022-12-29T05:25:40;45.70;;;43.47;;
12194;SDS011;27023;42.680;23.132;2022-12-29T05:28:06;43.13;;;41.00;;
12194;SDS011;27023;42.680;23.132;2022-12-29T05:30:33;41.17;;;39.03;;
12194;SDS011;27023;42.680;23.132;2022-12-29T05:33:00;45.47;;;43.13;;
12194;SDS011;27023;42.680;23.132;2022-12-29T05:35:28;38.43;;;36.40;;
12194;SDS011;27023;42.680;23.132;2022-12-29T05:37:54;33.60;;;31.73;;
12194;SDS011;27023;42.680;23.132;2022-12-29T05:40:21;32.20;;;30.50;;
12194;SDS011;27023;42.680;23.132;2022-12-29T05:42:48;38.63;;;36.63;;
12194;SDS011;27023;42.680;23.132;2022-12-29T05:45:14;37.00;;;35.10;;
12194;SDS011;27023;42.680;23.132;2022-12-29T05:47:41;38.20;;;36.23;;
12194;SDS011;27023;42.680;23.132;2022-12-29T05:50:08;41.53;;;39.30;;
12194;SDS011;27023;42.680;23.132;2022-12-29T05:52:42;32.97;;;31.27;;
12194;SDS011;27023;42.680;23.132;2022-12-29T05:55:09;30.00;;;28.50;;
12194;SDS011;27023;42.680;23.132;2022-12-29T05:57:35;26.63;;;25.40;;
12194;SDS011;27023;42.680;23.132;2022-12-29T06:00:02;28.53;;;27.13;;
12194;SDS011;27023;42.680;23.132;2022-12-29T06:02:30;35.80;;;33.90;;
12194;SDS011;27023;42.680;23.132;2022-12-29T06:04:56;36.53;;;34.83;;
12194;SDS011;27023;42.680;23.132;2022-12-29T06:07:23;32.63;;;31.03;;
12194;SDS011;27023;42.680;23.132;2022-12-29T06:09:51;34.30;;;32.60;;
12194;SDS011;27023;42.680;23.132;2022-12-29T06:12:18;39.40;;;37.33;;
12194;SDS011;27023;42.680;23.132;2022-12-29T06:14:45;36.93;;;35.07;;
12194;SDS011;27023;42.680;23.132;2022-12-29T06:17:11;29.17;;;27.67;;
12194;SDS011;27023;42.680;23.132;2022-12-29T06:19:38;29.80;;;28.30;;
12194;SDS011;27023;42.680;23.132;2022-12-29T06:22:05;31.23;;;29.67;;
12194;SDS011;27023;42.680;23.132;2022-12-29T06:24:32;36.40;;;34.57;;
12194;SDS011;27023;42.680;23.132;2022-12-29T06:27:00;28.67;;;27.27;;
12194;SDS011;27023;42.680;23.132;2022-12-29T06:29:27;25.50;;;24.27;;
12194;SDS011;27023;42.680;23.132;2022-12-29T06:31:54;21.67;;;20.60;;
12194;SDS011;27023;42.680;23.132;2022-12-29T06:34:22;20.33;;;19.40;;
12194;SDS011;27023;42.680;23.132;2022-12-29T06:36:49;19.70;;;18.73;;
12194;SDS011;27023;42.680;23.132;2022-12-29T06:39:16;16.27;;;15.60;;
12194;SDS011;27023;42.680;23.132;2022-12-29T06:41:43;16.23;;;15.40;;
12194;SDS011;27023;42.680;23.132;2022-12-29T06:44:11;14.67;;;14.00;;
12194;SDS011;27023;42.680;23.132;2022-12-29T06:46:37;16.37;;;15.63;;
12194;SDS011;27023;42.680;23.132;2022-12-29T06:49:04;14.87;;;14.30;;
12194;SDS011;27023;42.680;23.132;2022-12-29T06:51:31;13.67;;;13.23;;
12194;SDS011;27023;42.680;23.132;2022-12-29T06:53:57;14.63;;;14.07;;
12194;SDS011;27023;42.680;23.132;2022-12-29T06:56:24;17.90;;;16.97;;
12194;SDS011;27023;42.680;23.132;2022-12-29T06:58:51;19.57;;;18.63;;
12194;SDS011;27023;42.680;23.132;2022-12-29T07:01:19;19.10;;;18.17;;
12194;SDS011;27023;42.680;23.132;2022-12-29T07:03:46;18.73;;;17.90;;
12194;SDS011;27023;42.680;23.132;2022-12-29T07:06:12;18.17;;;17.37;;
12194;SDS011;27023;42.680;23.132;2022-12-29T07:08:40;18.37;;;17.53;;
12194;SDS011;27023;42.680;23.132;2022-12-29T07:11:07;18.87;;;18.07;;
12194;SDS011;27023;42.680;23.132;2022-12-29T07:13:33;18.47;;;17.53;;
12194;SDS011;27023;42.680;23.132;2022-12-29T07:16:04;18.33;;;17.47;;
12194;SDS011;27023;42.680;23.132;2022-12-29T07:18:33;16.50;;;15.73;;
12194;SDS011;27023;42.680;23.132;2022-12-29T07:21:00;16.13;;;15.40;;
12194;SDS011;27023;42.680;23.132;2022-12-29T07:23:27;15.37;;;14.60;;
12194;SDS011;27023;42.680;23.132;2022-12-29T07:25:58;23.67;;;22.57;;
12194;SDS011;27023;42.680;23.132;2022-12-29T07:28:27;17.23;;;16.43;;
12194;SDS011;27023;42.680;23.132;2022-12-29T07:30:55;16.63;;;15.93;;
12194;SDS011;27023;42.680;23.132;2022-12-29T07:33:23;16.73;;;16.03;;
12194;SDS011;27023;42.680;23.132;2022-12-29T07:35:52;18.07;;;17.30;;
12194;SDS011;27023;42.680;23.132;2022-12-29T07:38:19;20.20;;;19.07;;
12194;SDS011;27023;42.680;23.132;2022-12-29T07:40:46;18.60;;;17.77;;
12194;SDS011;27023;42.680;23.132;2022-12-29T07:43:12;18.13;;;17.33;;
12194;SDS011;27023;42.680;23.132;2022-12-29T07:45:39;18.43;;;17.63;;
12194;SDS011;27023;42.680;23.132;2022-12-29T07:48:06;18.03;;;17.13;;
12194;SDS011;27023;42.680;23.132;2022-12-29T07:50:33;21.13;;;20.03;;
12194;SDS011;27023;42.680;23.132;2022-12-29T07:53:01;15.33;;;14.53;;
12194;SDS011;27023;42.680;23.132;2022-12-29T07:55:28;14.90;;;14.20;;
12194;SDS011;27023;42.680;23.132;2022-12-29T07:57:55;16.10;;;15.33;;
12194;SDS011;27023;42.680;23.132;2022-12-29T08:00:22;14.17;;;13.50;;
12194;SDS011;27023;42.680;23.132;2022-12-29T08:02:49;13.10;;;12.53;;
12194;SDS011;27023;42.680;23.132;2022-12-29T08:05:16;12.50;;;11.97;;
12194;SDS011;27023;42.680;23.132;2022-12-29T08:07:43;13.40;;;12.70;;
12194;SDS011;27023;42.680;23.132;2022-12-29T08:10:12;13.30;;;12.80;;
12194;SDS011;27023;42.680;23.132;2022-12-29T08:12:39;13.10;;;12.50;;
12194;SDS011;27023;42.680;23.132;2022-12-29T08:15:07;13.83;;;13.23;;
12194;SDS011;27023;42.680;23.132;2022-12-29T08:17:35;14.00;;;13.40;;
12194;SDS011;27023;42.680;23.132;2022-12-29T08:20:02;14.37;;;13.87;;
12194;SDS011;27023;42.680;23.132;2022-12-29T08:22:30;13.57;;;12.97;;
12194;SDS011;27023;42.680;23.132;2022-12-29T08:24:56;16.00;;;15.10;;
12194;SDS011;27023;42.680;23.132;2022-12-29T08:27:24;16.57;;;15.77;;
12194;SDS011;27023;42.680;23.132;2022-12-29T08:29:52;18.13;;;17.33;;
12194;SDS011;27023;42.680;23.132;2022-12-29T08:32:18;14.83;;;14.17;;
12194;SDS011;27023;42.680;23.132;2022-12-29T08:34:45;16.30;;;15.50;;
12194;SDS011;27023;42.680;23.132;2022-12-29T08:37:12;15.27;;;14.53;;
12194;SDS011;27023;42.680;23.132;2022-12-29T08:39:38;13.37;;;12.77;;
12194;SDS011;27023;42.680;23.132;2022-12-29T08:42:05;11.90;;;11.40;;
12194;SDS011;27023;42.680;23.132;2022-12-29T08:44:33;13.17;;;12.57;;
12194;SDS011;27023;42.680;23.132;2022-12-29T08:47:00;14.43;;;13.63;;
12194;SDS011;27023;42.680;23.132;2022-12-29T08:49:27;12.93;;;12.43;;
12194;SDS011;27023;42.680;23.132;2022-12-29T08:51:53;14.37;;;13.53;;
12194;SDS011;27023;42.680;23.132;2022-12-29T08:54:20;23.53;;;21.90;;
12194;SDS011;27023;42.680;23.132;2022-12-29T08:56:47;17.30;;;16.60;;
12194;SDS011;27023;42.680;23.132;2022-12-29T08:59:14;18.03;;;17.17;;
12194;SDS011;27023;42.680;23.132;2022-12-29T09:01:42;23.33;;;22.23;;
12194;SDS011;27023;42.680;23.132;2022-12-29T09:04:08;23.80;;;22.20;;
12194;SDS011;27023;42.680;23.132;2022-12-29T09:06:35;21.67;;;20.67;;
12194;SDS011;27023;42.680;23.132;2022-12-29T09:09:02;21.87;;;20.80;;
12194;SDS011;27023;42.680;23.132;2022-12-29T09:11:29;22.80;;;21.80;;
12194;SDS011;27023;42.680;23.132;2022-12-29T09:13:55;22.23;;;21.23;;
12194;SDS011;27023;42.680;23.132;2022-12-29T09:16:23;17.90;;;17.10;;
12194;SDS011;27023;42.680;23.132;2022-12-29T09:18:51;17.33;;;16.63;;
12194;SDS011;27023;42.680;23.132;2022-12-29T09:21:18;15.10;;;14.50;;
12194;SDS011;27023;42.680;23.132;2022-12-29T09:23:45;12.77;;;12.27;;
12194;SDS011;27023;42.680;23.132;2022-12-29T09:26:12;13.03;;;12.53;;
12194;SDS011;27023;42.680;23.132;2022-12-29T09:28:38;13.90;;;13.30;;
12194;SDS011;27023;42.680;23.132;2022-12-29T09:31:05;12.87;;;12.27;;
12194;SDS011;27023;42.680;23.132;2022-12-29T09:33:32;14.33;;;13.73;;
12194;SDS011;27023;42.680;23.132;2022-12-29T09:36:01;13.70;;;13.10;;
12194;SDS011;27023;42.680;23.132;2022-12-29T09:38:28;10.80;;;10.40;;
12194;SDS011;27023;42.680;23.132;2022-12-29T09:40:56;10.20;;;9.80;;
12194;SDS011;27023;42.680;23.132;2022-12-29T09:43:41;7.70;;;7.47;;
12194;SDS011;27023;42.680;23.132;2022-12-29T09:46:22;8.27;;;7.97;;
12194;SDS011;27023;42.680;23.132;2022-12-29T09:48:51;8.43;;;8.17;;
12194;SDS011;27023;42.680;23.132;2022-12-29T09:51:27;7.70;;;7.50;;
12194;SDS011;27023;42.680;23.132;2022-12-29T09:53:55;6.30;;;6.20;;
12194;SDS011;27023;42.680;23.132;2022-12-29T09:56:26;5.47;;;5.07;;
12194;SDS011;27023;42.680;23.132;2022-12-29T09:58:54;6.90;;;6.60;;
12194;SDS011;27023;42.680;23.132;2022-12-29T10:01:27;4.00;;;4.00;;
12194;SDS011;27023;42.680;23.132;2022-12-29T10:03:57;3.00;;;2.90;;
12194;SDS011;27023;42.680;23.132;2022-12-29T10:06:30;2.93;;;2.87;;
12194;SDS011;27023;42.680;23.132;2022-12-29T10:09:02;2.47;;;2.47;;
12194;SDS011;27023;42.680;23.132;2022-12-29T10:11:39;3.40;;;3.30;;
12194;SDS011;27023;42.680;23.132;2022-12-29T10:14:23;3.57;;;3.37;;
12194;SDS011;27023;42.680;23.132;2022-12-29T10:17:00;3.87;;;3.77;;
12194;SDS011;27023;42.680;23.132;2022-12-29T10:19:42;8.10;;;7.40;;
12194;SDS011;27023;42.680;23.132;2022-12-29T10:22:27;9.20;;;8.83;;
12194;SDS011;27023;42.680;23.132;2022-12-29T10:25:08;8.40;;;8.10;;
12194;SDS011;27023;42.680;23.132;2022-12-29T10:27:41;8.97;;;8.67;;
12194;SDS011;27023;42.680;23.132;2022-12-29T10:30:11;8.50;;;8.30;;
12194;SDS011;27023;42.680;23.132;2022-12-29T10:32:39;6.53;;;6.33;;
12194;SDS011;27023;42.680;23.132;2022-12-29T10:35:12;6.83;;;6.73;;
12194;SDS011;27023;42.680;23.132;2022-12-29T10:37:48;7.77;;;7.57;;
12194;SDS011;27023;42.680;23.132;2022-12-29T10:40:20;6.43;;;6.33;;
12194;SDS011;27023;42.680;23.132;2022-12-29T10:42:53;6.13;;;6.03;;
12194;SDS011;27023;42.680;23.132;2022-12-29T10:45:21;6.50;;;6.40;;
12194;SDS011;27023;42.680;23.132;2022-12-29T10:47:52;4.27;;;4.17;;
12194;SDS011;27023;42.680;23.132;2022-12-29T10:50:24;5.97;;;5.77;;
12194;SDS011;27023;42.680;23.132;2022-12-29T10:52:53;8.90;;;8.50;;
12194;SDS011;27023;42.680;23.132;2022-12-29T10:55:23;6.87;;;6.67;;
12194;SDS011;27023;42.680;23.132;2022-12-29T10:57:54;4.63;;;4.53;;
12194;SDS011;27023;42.680;23.132;2022-12-29T11:00:23;5.07;;;4.97;;
12194;SDS011;27023;42.680;23.132;2022-12-29T11:02:58;5.73;;;5.60;;
12194;SDS011;27023;42.680;23.132;2022-12-29T11:05:39;5.97;;;5.83;;
12194;SDS011;27023;42.680;23.132;2022-12-29T11:08:12;2.93;;;2.93;;
12194;SDS011;27023;42.680;23.132;2022-12-29T11:10:43;3.03;;;2.97;;
12194;SDS011;27023;42.680;23.132;2022-12-29T11:13:11;2.87;;;2.87;;
12194;SDS011;27023;42.680;23.132;2022-12-29T11:15:40;2.83;;;2.63;;
12194;SDS011;27023;42.680;23.132;2022-12-29T11:18:19;3.43;;;3.33;;
12194;SDS011;27023;42.680;23.132;2022-12-29T11:20:47;2.97;;;2.87;;
12194;SDS011;27023;42.680;23.132;2022-12-29T11:23:24;2.83;;;2.77;;
12194;SDS011;27023;42.680;23.132;2022-12-29T11:26:07;2.53;;;2.53;;
12194;SDS011;27023;42.680;23.132;2022-12-29T11:28:42;2.70;;;2.63;;
12194;SDS011;27023;42.680;23.132;2022-12-29T11:31:10;2.43;;;2.43;;
12194;SDS011;27023;42.680;23.132;2022-12-29T11:33:42;2.53;;;2.43;;
12194;SDS011;27023;42.680;23.132;2022-12-29T11:36:10;3.23;;;3.17;;
12194;SDS011;27023;42.680;23.132;2022-12-29T11:38:42;3.37;;;3.17;;
12194;SDS011;27023;42.680;23.132;2022-12-29T11:41:13;3.10;;;2.90;;
12194;SDS011;27023;42.680;23.132;2022-12-29T11:43:46;2.17;;;2.17;;
12194;SDS011;27023;42.680;23.132;2022-12-29T11:46:14;2.17;;;2.17;;
12194;SDS011;27023;42.680;23.132;2022-12-29T11:48:43;2.40;;;2.40;;
12194;SDS011;27023;42.680;23.132;2022-12-29T11:51:10;2.43;;;2.43;;
12194;SDS011;27023;42.680;23.132;2022-12-29T11:53:38;2.03;;;2.03;;
12194;SDS011;27023;42.680;23.132;2022-12-29T11:56:13;2.57;;;2.57;;
12194;SDS011;27023;42.680;23.132;2022-12-29T11:58:41;2.03;;;1.93;;
12194;SDS011;27023;42.680;23.132;2022-12-29T12:01:11;3.13;;;2.40;;
12194;SDS011;27023;42.680;23.132;2022-12-29T12:03:44;2.17;;;2.17;;
12194;SDS011;27023;42.680;23.132;2022-12-29T12:06:15;2.50;;;2.40;;
12194;SDS011;27023;42.680;23.132;2022-12-29T12:08:48;2.93;;;2.93;;
12194;SDS011;27023;42.680;23.132;2022-12-29T12:11:20;2.70;;;2.60;;
12194;SDS011;27023;42.680;23.132;2022-12-29T12:13:53;8.80;;;3.50;;
12194;SDS011;27023;42.680;23.132;2022-12-29T12:16:26;2.70;;;2.70;;
12194;SDS011;27023;42.680;23.132;2022-12-29T12:18:58;2.73;;;2.70;;
12194;SDS011;27023;42.680;23.132;2022-12-29T12:21:34;2.47;;;2.47;;
12194;SDS011;27023;42.680;23.132;2022-12-29T12:24:14;3.00;;;3.00;;
12194;SDS011;27023;42.680;23.132;2022-12-29T12:26:58;2.17;;;2.17;;
12194;SDS011;27023;42.680;23.132;2022-12-29T12:29:32;2.87;;;2.80;;
12194;SDS011;27023;42.680;23.132;2022-12-29T12:32:05;3.17;;;3.07;;
12194;SDS011;27023;42.680;23.132;2022-12-29T12:34:42;3.17;;;3.07;;
12194;SDS011;27023;42.680;23.132;2022-12-29T12:37:16;2.47;;;2.47;;
12194;SDS011;27023;42.680;23.132;2022-12-29T12:40:09;2.33;;;2.33;;
12194;SDS011;27023;42.680;23.132;2022-12-29T12:42:53;3.00;;;2.90;;
12194;SDS011;27023;42.680;23.132;2022-12-29T12:45:38;3.03;;;2.93;;
12194;SDS011;27023;42.680;23.132;2022-12-29T12:48:20;2.30;;;2.30;;
12194;SDS011;27023;42.680;23.132;2022-12-29T12:51:05;3.47;;;3.27;;
12194;SDS011;27023;42.680;23.132;2022-12-29T12:53:46;2.40;;;2.40;;
12194;SDS011;27023;42.680;23.132;2022-12-29T12:59:15;3.37;;;3.17;;
12194;SDS011;27023;42.680;23.132;2022-12-29T13:01:53;2.23;;;2.23;;
12194;SDS011;27023;42.680;23.132;2022-12-29T13:04:38;3.67;;;3.50;;
12194;SDS011;27023;42.680;23.132;2022-12-29T13:07:20;3.17;;;3.07;;
12194;SDS011;27023;42.680;23.132;2022-12-29T13:10:03;2.70;;;2.70;;
12194;SDS011;27023;42.680;23.132;2022-12-29T13:12:46;3.07;;;2.93;;
12194;SDS011;27023;42.680;23.132;2022-12-29T13:15:22;3.50;;;3.47;;
12194;SDS011;27023;42.680;23.132;2022-12-29T13:18:05;3.80;;;3.73;;
12194;SDS011;27023;42.680;23.132;2022-12-29T13:20:43;3.37;;;3.30;;
12194;SDS011;27023;42.680;23.132;2022-12-29T13:23:15;2.97;;;2.77;;
12194;SDS011;27023;42.680;23.132;2022-12-29T13:25:49;4.30;;;3.93;;
12194;SDS011;27023;42.680;23.132;2022-12-29T13:28:25;4.63;;;4.20;;
12194;SDS011;27023;42.680;23.132;2022-12-29T13:31:00;5.23;;;4.70;;
12194;SDS011;27023;42.680;23.132;2022-12-29T13:33:37;3.47;;;3.33;;
12194;SDS011;27023;42.680;23.132;2022-12-29T13:36:18;4.60;;;4.40;;
12194;SDS011;27023;42.680;23.132;2022-12-29T13:38:51;4.90;;;4.73;;
12194;SDS011;27023;42.680;23.132;2022-12-29T13:41:25;6.43;;;5.93;;
12194;SDS011;27023;42.680;23.132;2022-12-29T13:43:57;12.30;;;11.30;;
12194;SDS011;27023;42.680;23.132;2022-12-29T13:46:28;9.70;;;9.40;;
12194;SDS011;27023;42.680;23.132;2022-12-29T13:48:58;8.33;;;7.97;;
12194;SDS011;27023;42.680;23.132;2022-12-29T13:51:28;10.20;;;9.80;;
12194;SDS011;27023;42.680;23.132;2022-12-29T13:54:01;13.17;;;12.57;;
12194;SDS011;27023;42.680;23.132;2022-12-29T13:56:34;11.50;;;11.10;;
12194;SDS011;27023;42.680;23.132;2022-12-29T13:59:08;15.07;;;14.07;;
12194;SDS011;27023;42.680;23.132;2022-12-29T14:01:46;17.83;;;17.00;;
12194;SDS011;27023;42.680;23.132;2022-12-29T14:04:23;11.67;;;11.27;;
12194;SDS011;27023;42.680;23.132;2022-12-29T14:06:59;13.67;;;13.13;;
12194;SDS011;27023;42.680;23.132;2022-12-29T14:09:38;15.23;;;14.67;;
12194;SDS011;27023;42.680;23.132;2022-12-29T14:12:21;16.70;;;16.00;;
12194;SDS011;27023;42.680;23.132;2022-12-29T14:15:18;23.10;;;22.10;;
12194;SDS011;27023;42.680;23.132;2022-12-29T14:18:02;28.73;;;27.33;;
12194;SDS011;27023;42.680;23.132;2022-12-29T14:20:36;12.33;;;11.87;;
12194;SDS011;27023;42.680;23.132;2022-12-29T14:23:15;20.17;;;19.27;;
12194;SDS011;27023;42.680;23.132;2022-12-29T14:25:58;9.80;;;9.50;;
12194;SDS011;27023;42.680;23.132;2022-12-29T14:28:27;26.17;;;24.97;;
12194;SDS011;27023;42.680;23.132;2022-12-29T14:30:56;26.73;;;25.50;;
12194;SDS011;27023;42.680;23.132;2022-12-29T14:33:25;17.40;;;16.70;;
12194;SDS011;27023;42.680;23.132;2022-12-29T14:35:54;18.83;;;17.83;;
12194;SDS011;27023;42.680;23.132;2022-12-29T14:38:22;16.83;;;16.03;;
12194;SDS011;27023;42.680;23.132;2022-12-29T14:40:51;13.87;;;13.17;;
12194;SDS011;27023;42.680;23.132;2022-12-29T14:43:20;17.33;;;16.60;;